createdAt,value
2022-12-23T00:01:05.319Z,99145.34
2022-12-23T00:03:33.540Z,99148.75
2022-12-23T00:06:02.078Z,99144.53
2022-12-23T00:08:29.820Z,99141.00
2022-12-23T00:10:59.382Z,99134.38
2022-12-23T00:13:44.780Z,99133.94
2022-12-23T00:16:15.538Z,99110.00
2022-12-23T00:18:44.335Z,99131.09
2022-12-23T00:21:14.992Z,99126.13
2022-12-23T00:23:44.883Z,99130.41
2022-12-23T00:26:16.998Z,99121.50
2022-12-23T00:28:45.444Z,99121.59
2022-12-23T00:31:14.364Z,99127.53
2022-12-23T00:33:44.408Z,99129.91
2022-12-23T00:36:14.588Z,99123.41
2022-12-23T00:38:59.895Z,99105.03
2022-12-23T00:41:47.141Z,99114.84
2022-12-23T00:44:15.093Z,99123.59
2022-12-23T00:46:42.967Z,99120.53
2022-12-23T00:49:30.813Z,99106.47
2022-12-23T00:51:58.796Z,99123.81
2022-12-23T00:54:26.883Z,99117.06
2022-12-23T00:56:56.244Z,99114.38
2022-12-23T00:59:24.072Z,99111.88
2022-12-23T01:02:09.405Z,99116.34
2022-12-23T01:04:54.863Z,99119.91
2022-12-23T01:07:22.841Z,99111.13
2022-12-23T01:09:50.770Z,99081.50
2022-12-23T01:12:20.013Z,99110.72
2022-12-23T01:14:48.165Z,99101.00
2022-12-23T01:17:16.026Z,99105.66
2022-12-23T01:19:43.815Z,99103.44
2022-12-23T01:22:11.882Z,99059.38
2022-12-23T01:24:39.612Z,99094.44
2022-12-23T01:27:07.336Z,99068.22
2022-12-23T01:29:36.632Z,99094.69
2022-12-23T01:32:04.509Z,99093.59
2022-12-23T01:34:36.763Z,99096.59
2022-12-23T01:37:05.710Z,99083.34
2022-12-23T01:39:33.684Z,99082.00
2022-12-23T01:42:19.275Z,99081.06
2022-12-23T01:44:55.372Z,99075.72
2022-12-23T01:47:28.557Z,99073.94
2022-12-23T01:50:02.120Z,99075.66
2022-12-23T01:52:31.037Z,99076.75
2022-12-23T01:54:59.243Z,99073.97
2022-12-23T01:57:27.294Z,99076.75
2022-12-23T02:00:13.914Z,99061.50
2022-12-23T02:03:01.007Z,99072.19
2022-12-23T02:05:29.278Z,99075.66
2022-12-23T02:08:14.781Z,99075.50
2022-12-23T02:11:00.032Z,99041.00
2022-12-23T02:13:35.421Z,99068.75
2022-12-23T02:16:18.828Z,99063.34
2022-12-23T02:19:02.772Z,99060.78
2022-12-23T02:21:48.389Z,99055.56
2022-12-23T02:24:41.982Z,99055.56
2022-12-23T02:27:14.775Z,99057.06
2022-12-23T02:30:28.029Z,99048.13
2022-12-23T02:33:16.596Z,99033.28
2022-12-23T02:35:50.165Z,99039.75
2022-12-23T02:38:25.299Z,99041.25
2022-12-23T02:41:03.708Z,99051.94
2022-12-23T02:43:41.006Z,99049.88
2022-12-23T02:46:12.616Z,99038.53
2022-12-23T02:48:48.152Z,99039.13
2022-12-23T02:51:17.144Z,99048.25
2022-12-23T02:53:49.726Z,99035.50
2022-12-23T02:56:19.556Z,99045.34
2022-12-23T02:58:52.273Z,99048.72
2022-12-23T03:01:21.814Z,99046.72
2022-12-23T03:03:52.183Z,99045.81
2022-12-23T03:06:24.552Z,99053.69
2022-12-23T03:08:55.413Z,99063.00
2022-12-23T03:11:26.486Z,99065.78
2022-12-23T03:14:09.490Z,99059.38
2022-12-23T03:16:53.981Z,99030.59
2022-12-23T03:19:32.365Z,99081.88
2022-12-23T03:22:09.395Z,99049.47
2022-12-23T03:24:43.728Z,99083.94
2022-12-23T03:27:17.578Z,99081.00
2022-12-23T03:29:53.229Z,99088.13
2022-12-23T03:32:23.501Z,99058.44
2022-12-23T03:34:56.258Z,99095.41
2022-12-23T03:37:27.280Z,99089.06
2022-12-23T03:40:02.409Z,99101.41
2022-12-23T03:42:34.994Z,99096.72
2022-12-23T03:45:38.763Z,99096.00
2022-12-23T03:48:00.704Z,99028.19
2022-12-23T03:50:31.154Z,99103.00
2022-12-23T03:53:01.259Z,99097.22
2022-12-23T03:55:34.502Z,99117.75
2022-12-23T03:58:08.948Z,99109.03
2022-12-23T04:00:42.758Z,99122.22
2022-12-23T04:03:18.650Z,99125.03
2022-12-23T04:05:54.609Z,99131.03
2022-12-23T04:08:27.389Z,99125.25
2022-12-23T04:10:55.515Z,99132.53
2022-12-23T04:13:23.240Z,99138.44
2022-12-23T04:15:51.344Z,99095.88
2022-12-23T04:18:19.420Z,99144.31
2022-12-23T04:20:48.705Z,99146.72
2022-12-23T04:23:16.399Z,99150.50
2022-12-23T04:25:44.310Z,99087.00
2022-12-23T04:28:12.231Z,99154.84
2022-12-23T04:30:40.013Z,99152.22
2022-12-23T04:33:07.992Z,99156.34
2022-12-23T04:35:35.840Z,99164.81
2022-12-23T04:38:05.123Z,99160.72
2022-12-23T04:40:32.917Z,99160.06
2022-12-23T04:43:00.799Z,99164.50
2022-12-23T04:45:28.552Z,99166.28
2022-12-23T04:47:56.403Z,99169.53
2022-12-23T04:50:24.267Z,99166.94
2022-12-23T04:52:51.981Z,99177.94
2022-12-23T04:55:21.133Z,99179.72
2022-12-23T04:57:49.106Z,99179.78
2022-12-23T05:00:17.720Z,99197.91
2022-12-23T05:02:45.642Z,99196.97
2022-12-23T05:05:13.632Z,99197.03
2022-12-23T05:07:41.516Z,99202.16
2022-12-23T05:10:10.622Z,99208.09
2022-12-23T05:12:39.700Z,99209.06
2022-12-23T05:15:08.822Z,99209.75
2022-12-23T05:17:36.657Z,99207.25
2022-12-23T05:20:04.576Z,99220.13
2022-12-23T05:22:32.457Z,99215.03
2022-12-23T05:25:00.351Z,99227.94
2022-12-23T05:27:28.062Z,99213.75
2022-12-23T05:29:57.246Z,99218.00
2022-12-23T05:32:25.094Z,99216.25
2022-12-23T05:34:52.779Z,99217.06
2022-12-23T05:37:20.627Z,99225.63
2022-12-23T05:39:48.461Z,99221.50
2022-12-23T05:42:19.442Z,99232.56
2022-12-23T05:44:47.399Z,99231.03
2022-12-23T05:47:16.817Z,99254.56
2022-12-23T05:49:44.592Z,99258.97
2022-12-23T05:52:12.391Z,99257.22
2022-12-23T05:54:40.304Z,99223.13
2022-12-23T05:57:08.572Z,99269.19
2022-12-23T05:59:36.427Z,99273.56
2022-12-23T06:02:04.363Z,99252.00
2022-12-23T06:04:33.589Z,99271.91
2022-12-23T06:07:01.402Z,99276.88
2022-12-23T06:09:29.490Z,99243.69
2022-12-23T06:11:57.230Z,99273.69
2022-12-23T06:14:28.762Z,99285.44
2022-12-23T06:16:57.497Z,99281.41
2022-12-23T06:19:25.600Z,99292.28
2022-12-23T06:21:54.784Z,99302.50
2022-12-23T06:24:22.670Z,99303.25
2022-12-23T06:26:56.537Z,99298.28
2022-12-23T06:29:25.321Z,99243.53
2022-12-23T06:31:53.302Z,99318.56
2022-12-23T06:34:21.125Z,99326.22
2022-12-23T06:36:49.204Z,99332.88
2022-12-23T06:39:18.306Z,99333.69
2022-12-23T06:41:46.227Z,99337.25
2022-12-23T06:44:14.066Z,99341.47
2022-12-23T06:46:41.796Z,99341.47
2022-12-23T06:49:13.539Z,99351.78
2022-12-23T06:51:42.297Z,99350.97
2022-12-23T06:54:11.976Z,99320.97
2022-12-23T06:56:41.131Z,99350.94
2022-12-23T06:59:09.006Z,99358.59
2022-12-23T07:01:37.032Z,99367.22
2022-12-23T07:04:04.918Z,99372.31
2022-12-23T07:06:32.862Z,99374.84
2022-12-23T07:09:01.148Z,99382.56
2022-12-23T07:11:28.948Z,99385.16
2022-12-23T07:13:59.632Z,99399.38
2022-12-23T07:16:27.914Z,99352.63
2022-12-23T07:18:55.660Z,99401.88
2022-12-23T07:21:28.994Z,99407.19
2022-12-23T07:23:57.533Z,99410.38
2022-12-23T07:26:25.386Z,99411.13
2022-12-23T07:28:53.077Z,99413.81
2022-12-23T07:31:22.450Z,99424.09
2022-12-23T07:33:50.365Z,99438.41
2022-12-23T07:36:18.187Z,99438.53
2022-12-23T07:38:46.219Z,99420.28
2022-12-23T07:41:14.025Z,99454.50
2022-12-23T07:43:41.730Z,99455.22
2022-12-23T07:46:10.445Z,99462.13
2022-12-23T07:48:40.944Z,99448.72
2022-12-23T07:51:08.536Z,99437.97
2022-12-23T07:53:36.610Z,99462.91
2022-12-23T07:56:04.681Z,99477.44
2022-12-23T07:58:32.459Z,99480.91
2022-12-23T08:01:01.807Z,99481.53
2022-12-23T08:03:29.914Z,99496.88
2022-12-23T08:06:03.567Z,99486.13
2022-12-23T08:08:31.580Z,99505.50
2022-12-23T08:11:01.289Z,99507.16
2022-12-23T08:13:29.620Z,99448.69
2022-12-23T08:15:58.183Z,99488.78
2022-12-23T08:18:26.941Z,99517.16
2022-12-23T08:20:56.350Z,99514.78
2022-12-23T08:23:26.583Z,99522.31
2022-12-23T08:26:01.561Z,99539.25
2022-12-23T08:28:29.563Z,99541.88
2022-12-23T08:31:03.913Z,99540.16
2022-12-23T08:33:31.824Z,99545.13
2022-12-23T08:35:59.814Z,99551.13
2022-12-23T08:38:28.931Z,99553.66
2022-12-23T08:40:56.887Z,99515.03
2022-12-23T08:43:26.686Z,99555.34
2022-12-23T08:45:58.275Z,99563.00
2022-12-23T08:48:26.014Z,99551.19
2022-12-23T08:50:53.756Z,99566.16
2022-12-23T08:53:21.876Z,99572.84
2022-12-23T08:55:50.951Z,99574.75
2022-12-23T08:58:18.688Z,99578.09
2022-12-23T09:00:46.709Z,99579.88
2022-12-23T09:03:14.541Z,99584.06
2022-12-23T09:05:43.142Z,99584.09
2022-12-23T09:08:11.090Z,99585.72
2022-12-23T09:10:42.904Z,99588.25
2022-12-23T09:13:16.658Z,99586.59
2022-12-23T09:15:50.188Z,99595.78
2022-12-23T09:18:18.247Z,99594.25
2022-12-23T09:20:46.069Z,99601.72
2022-12-23T09:23:13.935Z,99606.00
2022-12-23T09:25:42.110Z,99612.03
2022-12-23T09:28:11.952Z,99616.13
2022-12-23T09:30:39.923Z,99613.56
2022-12-23T09:33:08.019Z,99617.19
2022-12-23T09:35:35.883Z,99612.03
2022-12-23T09:38:03.670Z,99629.38
2022-12-23T09:40:36.002Z,99632.34
2022-12-23T09:43:16.958Z,99643.97
2022-12-23T09:46:00.115Z,99647.66
2022-12-23T09:48:30.954Z,99662.13
2022-12-23T09:50:58.760Z,99664.84
2022-12-23T09:53:41.904Z,99652.44
2022-12-23T09:56:17.967Z,99663.34
2022-12-23T09:58:52.301Z,99665.91
2022-12-23T10:01:26.142Z,99665.91
2022-12-23T10:04:11.802Z,99669.31
2022-12-23T10:06:42.436Z,99666.69
2022-12-23T10:09:12.142Z,99687.91
2022-12-23T10:11:45.046Z,99691.25
2022-12-23T10:14:20.887Z,99679.31
2022-12-23T10:16:53.219Z,99672.50
2022-12-23T10:19:27.659Z,99689.38
2022-12-23T10:22:01.273Z,99692.63
2022-12-23T10:24:34.624Z,99691.63
2022-12-23T10:27:05.903Z,99695.81
2022-12-23T10:29:35.304Z,99703.59
2022-12-23T10:32:18.709Z,99712.34
2022-12-23T10:34:53.707Z,99715.59
2022-12-23T10:37:28.597Z,99707.94
2022-12-23T10:40:11.098Z,99714.00
2022-12-23T10:42:47.139Z,99718.09
2022-12-23T10:45:27.171Z,99714.69
2022-12-23T10:48:13.935Z,99720.78
2022-12-23T10:50:53.536Z,99719.22
2022-12-23T10:53:36.603Z,99724.44
2022-12-23T10:56:06.489Z,99727.91
2022-12-23T10:58:38.167Z,99728.59
2022-12-23T11:01:16.153Z,99737.06
2022-12-23T11:03:58.925Z,99743.19
2022-12-23T11:06:34.856Z,99725.66
2022-12-23T11:09:06.331Z,99761.91
2022-12-23T11:12:08.427Z,99755.00
2022-12-23T11:14:40.073Z,99759.38
2022-12-23T11:17:22.284Z,99764.28
2022-12-23T11:20:06.556Z,99765.84
2022-12-23T11:22:34.388Z,99775.13
2022-12-23T11:25:27.629Z,99784.38
2022-12-23T11:27:59.981Z,99782.78
2022-12-23T11:30:29.324Z,99786.19
2022-12-23T11:32:59.304Z,99794.09
2022-12-23T11:35:30.088Z,99795.13
2022-12-23T11:37:59.768Z,99796.84
2022-12-23T11:40:30.348Z,99771.03
2022-12-23T11:43:00.908Z,99805.56
2022-12-23T11:45:31.679Z,99808.94
2022-12-23T11:48:00.798Z,99811.34
2022-12-23T11:50:35.002Z,99809.00
2022-12-23T11:53:10.823Z,99811.59
2022-12-23T11:55:45.850Z,99812.63
2022-12-23T11:58:20.693Z,99812.47
2022-12-23T12:00:56.851Z,99818.41
2022-12-23T12:03:31.905Z,99823.59
2022-12-23T12:06:03.571Z,99826.00
2022-12-23T12:08:34.814Z,99819.41
2022-12-23T12:11:08.918Z,99821.88
2022-12-23T12:13:40.968Z,99821.28
2022-12-23T12:16:31.889Z,99829.50
2022-12-23T12:19:06.114Z,99832.81
2022-12-23T12:21:38.473Z,99843.06
2022-12-23T12:24:18.401Z,99847.78
2022-12-23T12:26:52.422Z,99847.88
2022-12-23T12:29:27.993Z,99857.34
2022-12-23T12:31:58.976Z,99862.59
2022-12-23T12:34:38.816Z,99873.69
2022-12-23T12:37:16.795Z,99872.13
2022-12-23T12:39:50.833Z,99879.81
2022-12-23T12:42:25.519Z,99874.72
2022-12-23T12:44:59.579Z,99836.06
2022-12-23T12:50:27.907Z,99868.84
2022-12-23T12:53:00.744Z,99879.03
2022-12-23T12:55:33.546Z,99813.47
2022-12-23T12:58:02.827Z,99882.53
2022-12-23T13:00:47.968Z,99891.81
2022-12-23T13:03:33.246Z,99888.44
2022-12-23T13:06:08.018Z,99889.25
2022-12-23T13:08:52.718Z,99902.81
2022-12-23T13:11:28.864Z,99906.19
2022-12-23T13:14:04.509Z,99910.38
2022-12-23T13:16:40.245Z,99916.28
2022-12-23T13:19:20.711Z,99913.00
2022-12-23T13:21:52.782Z,99911.25
2022-12-23T13:24:28.898Z,99913.00
2022-12-23T13:27:04.231Z,99908.00
2022-12-23T13:29:57.724Z,99890.31
2022-12-23T13:32:38.175Z,99934.97
2022-12-23T13:35:20.685Z,99930.75
2022-12-23T13:37:59.832Z,99931.56
2022-12-23T13:40:39.177Z,99937.53
2022-12-23T13:43:14.624Z,99938.38
2022-12-23T13:45:43.707Z,99941.72
2022-12-23T13:48:30.944Z,99951.00
2022-12-23T13:51:05.406Z,99881.09
2022-12-23T13:53:49.092Z,99952.69
2022-12-23T13:56:27.113Z,99956.06
2022-12-23T13:58:55.419Z,99961.97
2022-12-23T14:01:35.027Z,99967.84
2022-12-23T14:04:32.735Z,99969.53
2022-12-23T14:07:02.233Z,99970.34
2022-12-23T14:09:34.735Z,99972.91
2022-12-23T14:12:22.523Z,99975.44
2022-12-23T14:15:13.427Z,99975.44
2022-12-23T14:17:52.886Z,99992.28
2022-12-23T14:20:31.960Z,99993.13
2022-12-23T14:23:14.390Z,99999.00
2022-12-23T14:25:56.287Z,100002.34
2022-12-23T14:28:54.059Z,100004.06
2022-12-23T14:31:33.279Z,100009.13
2022-12-23T14:34:07.131Z,99942.56
2022-12-23T14:36:35.307Z,100015.00
2022-12-23T14:39:31.131Z,100020.78
2022-12-23T14:42:05.912Z,100009.94
2022-12-23T14:44:49.789Z,100014.16
2022-12-23T14:47:32.563Z,100020.84
2022-12-23T14:50:33.876Z,100026.75
2022-12-23T14:53:02.274Z,100030.00
2022-12-23T14:55:45.606Z,100037.63
2022-12-23T14:58:52.950Z,100046.88
2022-12-23T15:01:30.209Z,100043.44
2022-12-23T15:04:01.865Z,100053.59
2022-12-23T15:09:38.549Z,100060.25
2022-12-23T15:12:14.374Z,100063.72
2022-12-23T15:14:47.048Z,100067.91
2022-12-23T15:17:19.111Z,100071.16
2022-12-23T15:19:48.321Z,100081.31
2022-12-23T15:22:23.615Z,100075.44
2022-12-23T15:24:53.547Z,100084.69
2022-12-23T15:27:30.247Z,100088.06
2022-12-23T15:29:59.051Z,100087.81
2022-12-23T15:32:30.122Z,100086.25
2022-12-23T15:35:03.726Z,100085.41
2022-12-23T15:37:32.571Z,100080.25
2022-12-23T15:40:09.908Z,100081.91
2022-12-23T15:42:40.476Z,100092.03
2022-12-23T15:45:30.839Z,100085.34
2022-12-23T15:48:00.027Z,100086.28
2022-12-23T15:50:28.644Z,100077.81
2022-12-23T15:53:03.624Z,100049.94
2022-12-23T15:55:33.637Z,100076.00
2022-12-23T15:58:04.444Z,100073.66
2022-12-23T16:00:39.629Z,100081.69
2022-12-23T16:03:25.207Z,100080.75
2022-12-23T16:05:53.451Z,100085.00
2022-12-23T16:08:30.077Z,100087.56
2022-12-23T16:11:06.705Z,100087.75
2022-12-23T16:13:34.906Z,100089.22
2022-12-23T16:16:31.433Z,100089.16
2022-12-23T16:19:00.927Z,100094.13
2022-12-23T16:21:32.083Z,100059.41
2022-12-23T16:24:01.565Z,100066.03
2022-12-23T16:26:29.381Z,100097.28
2022-12-23T16:29:01.841Z,100103.75
2022-12-23T16:31:29.813Z,100106.38
2022-12-23T16:33:59.296Z,100115.56
2022-12-23T16:36:36.764Z,100120.00
2022-12-23T16:39:18.007Z,100123.41
2022-12-23T16:41:45.859Z,100125.06
2022-12-23T16:44:13.814Z,100128.81
2022-12-23T16:46:44.521Z,100121.31
2022-12-23T16:49:16.645Z,100124.59
2022-12-23T16:51:46.535Z,100127.03
2022-12-23T16:54:16.558Z,100132.56
2022-12-23T16:56:46.950Z,100128.38
2022-12-23T16:59:15.129Z,100124.19
2022-12-23T17:01:45.730Z,100128.25
2022-12-23T17:04:14.027Z,100128.84
2022-12-23T17:06:42.378Z,100135.44
2022-12-23T17:09:12.315Z,100139.41
2022-12-23T17:11:44.214Z,100085.03
2022-12-23T17:14:16.719Z,100135.47
2022-12-23T17:16:45.128Z,100140.97
2022-12-23T17:19:13.628Z,100127.38
2022-12-23T17:21:43.997Z,100131.50
2022-12-23T17:24:14.417Z,100135.22
2022-12-23T17:26:41.968Z,100135.84
2022-12-23T17:29:12.460Z,100128.47
2022-12-23T17:31:41.628Z,100118.78
2022-12-23T17:34:15.277Z,100133.03
2022-12-23T17:36:49.464Z,100104.38
2022-12-23T17:39:19.460Z,100138.69
2022-12-23T17:41:48.079Z,100141.81
2022-12-23T17:44:17.530Z,100147.69
2022-12-23T17:46:46.656Z,100145.75
2022-12-23T17:49:14.916Z,100148.03
2022-12-23T17:51:43.532Z,100142.50
2022-12-23T17:54:22.651Z,100151.25
2022-12-23T17:56:50.943Z,100146.81
2022-12-23T17:59:18.828Z,100155.66
2022-12-23T18:01:46.904Z,100153.75
2022-12-23T18:04:14.726Z,100146.38
2022-12-23T18:06:42.793Z,100159.00
2022-12-23T18:09:10.686Z,100152.91
2022-12-23T18:11:43.020Z,100159.88
2022-12-23T18:14:16.133Z,100164.31
2022-12-23T18:16:43.951Z,100161.59
2022-12-23T18:19:17.871Z,100160.34
2022-12-23T18:21:46.055Z,100169.25
2022-12-23T18:24:14.083Z,100175.16
2022-12-23T18:26:43.398Z,100169.91
2022-12-23T18:29:11.099Z,100175.03
2022-12-23T18:31:50.628Z,100185.22
2022-12-23T18:34:19.847Z,100129.81
2022-12-23T18:36:50.679Z,100184.41
2022-12-23T18:39:18.733Z,100179.09
2022-12-23T18:41:48.005Z,100188.09
2022-12-23T18:44:18.266Z,100190.88
2022-12-23T18:46:46.077Z,100199.59
2022-12-23T18:49:14.039Z,100200.94
2022-12-23T18:51:41.833Z,100197.44
2022-12-23T18:54:13.900Z,100202.69
2022-12-23T18:56:41.732Z,100201.50
2022-12-23T18:59:16.828Z,100207.84
2022-12-23T19:01:44.899Z,100182.25
2022-12-23T19:04:12.759Z,100210.84
2022-12-23T19:06:41.412Z,100217.13
2022-12-23T19:09:11.617Z,100212.72
2022-12-23T19:11:39.308Z,100222.97
2022-12-23T19:14:07.097Z,100230.50
2022-12-23T19:16:36.292Z,100225.09
2022-12-23T19:19:04.299Z,100231.22
2022-12-23T19:21:32.094Z,100236.84
2022-12-23T19:23:59.933Z,100240.09
2022-12-23T19:26:27.659Z,100236.50
2022-12-23T19:28:55.452Z,100215.88
2022-12-23T19:31:23.430Z,100241.94
2022-12-23T19:33:52.608Z,100243.53
2022-12-23T19:36:23.870Z,100246.88
2022-12-23T19:38:52.630Z,100245.41
2022-12-23T19:41:21.141Z,100237.25
2022-12-23T19:43:49.129Z,100204.25
2022-12-23T19:46:17.577Z,100260.66
2022-12-23T19:48:50.290Z,100262.06
2022-12-23T19:51:19.677Z,100271.47
2022-12-23T19:53:52.812Z,100268.22
2022-12-23T19:56:21.945Z,100285.72
2022-12-23T19:58:50.812Z,100281.84
2022-12-23T20:01:22.284Z,100279.09
2022-12-23T20:03:51.052Z,100273.69
2022-12-23T20:06:22.636Z,100279.72
2022-12-23T20:08:54.912Z,100275.47
2022-12-23T20:11:30.539Z,100281.81
2022-12-23T20:13:58.647Z,100281.59
2022-12-23T20:16:27.443Z,100292.84
2022-12-23T20:18:55.532Z,100289.16
2022-12-23T20:21:25.130Z,100247.09
2022-12-23T20:23:52.972Z,100284.38
2022-12-23T20:26:22.402Z,100270.41
2022-12-23T20:28:50.740Z,100300.06
2022-12-23T20:31:22.149Z,100290.28
2022-12-23T20:33:51.110Z,100290.84
2022-12-23T20:36:21.077Z,100252.16
2022-12-23T20:38:51.619Z,100284.97
2022-12-23T20:41:21.915Z,100287.06
2022-12-23T20:44:15.698Z,100286.66
2022-12-23T20:46:38.515Z,100293.13
2022-12-23T20:49:06.496Z,100303.31
2022-12-23T20:51:34.274Z,100298.91
2022-12-23T20:54:03.598Z,100308.53
2022-12-23T20:56:31.848Z,100296.25
2022-12-23T20:59:01.467Z,100284.34
2022-12-23T21:01:31.397Z,100327.81
2022-12-23T21:04:01.147Z,100327.06
2022-12-23T21:06:30.269Z,100334.13
2022-12-23T21:08:59.992Z,100341.31
2022-12-23T21:11:31.024Z,100336.22
2022-12-23T21:14:06.117Z,100342.25
2022-12-23T21:16:35.967Z,100347.00
2022-12-23T21:19:05.305Z,100346.66
2022-12-23T21:21:33.095Z,100339.00
2022-12-23T21:24:04.491Z,100347.38
2022-12-23T21:26:35.420Z,100347.72
2022-12-23T21:29:04.877Z,100346.81
2022-12-23T21:31:34.995Z,100358.94
2022-12-23T21:34:03.445Z,100322.22
2022-12-23T21:36:34.867Z,100360.03
2022-12-23T21:39:02.994Z,100318.50
2022-12-23T21:41:33.110Z,100366.78
2022-12-23T21:44:02.319Z,100309.41
2022-12-23T21:46:30.884Z,100370.53
2022-12-23T21:48:59.602Z,100365.91
2022-12-23T21:51:36.673Z,100359.75
2022-12-23T21:54:07.374Z,100371.78
2022-12-23T21:56:35.365Z,100374.06
2022-12-23T21:59:06.822Z,100380.34
2022-12-23T22:01:35.437Z,100349.50
2022-12-23T22:04:03.319Z,100387.41
2022-12-23T22:06:33.792Z,100379.44
2022-12-23T22:09:01.659Z,100383.69
2022-12-23T22:11:31.480Z,100384.00
2022-12-23T22:14:00.782Z,100384.44
2022-12-23T22:16:31.971Z,100395.69
2022-12-23T22:19:01.135Z,100394.72
2022-12-23T22:21:31.952Z,100386.84
2022-12-23T22:24:01.016Z,100381.41
2022-12-23T22:26:30.858Z,100392.16
2022-12-23T22:29:45.561Z,100386.50
2022-12-23T22:32:14.684Z,100392.31
2022-12-23T22:34:42.512Z,100390.75
2022-12-23T22:37:10.360Z,100397.66
2022-12-23T22:39:38.075Z,100403.28
2022-12-23T22:42:06.018Z,100393.88
2022-12-23T22:44:33.879Z,100402.41
2022-12-23T22:47:01.737Z,100406.53
2022-12-23T22:49:31.065Z,100411.28
2022-12-23T22:51:58.999Z,100408.97
2022-12-23T22:54:26.744Z,100418.16
2022-12-23T22:56:54.565Z,100425.53
2022-12-23T22:59:24.252Z,100421.53
2022-12-23T23:01:53.566Z,100422.31
2022-12-23T23:04:21.870Z,100426.84
2022-12-23T23:06:51.174Z,100423.22
2022-12-23T23:09:20.683Z,100436.19
2022-12-23T23:11:49.085Z,100433.56
2022-12-23T23:14:17.309Z,100436.53
2022-12-23T23:16:45.208Z,100410.19
2022-12-23T23:19:15.132Z,100445.97
2022-12-23T23:21:43.307Z,100443.41
2022-12-23T23:24:12.467Z,100442.97
2022-12-23T23:26:40.235Z,100436.91
2022-12-23T23:29:08.058Z,100432.47
2022-12-23T23:31:44.197Z,100449.56
2022-12-23T23:34:12.853Z,100447.53
2022-12-23T23:36:41.082Z,100413.06
2022-12-23T23:39:09.098Z,100461.56
2022-12-23T23:41:38.303Z,100470.47
2022-12-23T23:44:06.269Z,100465.69
2022-12-23T23:46:34.263Z,100460.66
2022-12-23T23:49:02.264Z,100466.34
2022-12-23T23:51:30.458Z,100446.91
2022-12-23T23:53:58.323Z,100471.41
2022-12-23T23:56:28.747Z,100465.66
2022-12-23T23:59:00.356Z,100464.94
